(°C)
(°C)
-2°
-2°
-2°
-2°
-2°
-2°
-2°
WNW
WNW
WNW
WNW
WNW
WNW
O
(km/h)
8-14
7-14
8-14
8-15
8-14
8-14
8-14
(mm)
0
0
0
0
0
0
0
(%)
3
2
2
1
1
2
1

Elevazione del sole

/ -10.3°
sun-icon
UV 0
07:14
16:50
Gibbosa crescente (155°)
17:11
03:22

METAR per 64.6°N 40.72°E (ULAA)

Ora Condizioni Temperatura/
Punto di rugiada
Vento Visibilità Tempo Nuvole Pressione Cambiamento Grezzo
MVFR 2°C / 2°C variable 2kt >10km - Broken Clouds 1600ft 997 No Significant change. Runway 26: Wet or puddles, 51-100% contamination with <1mm, friction coefficient 0.60. ULAA 181500Z VRB01MPS 9999 BKN016CB 02/02 Q0997 R26/290060 NOSIG RMK QFE746/0995
VFR 2°C / 1°C 290º 4kt >10km - Scattered Clouds 2300ft 997 No Significant change. Runway 26: Wet or puddles, 51-100% contamination with <1mm, friction coefficient 0.60. ULAA 181430Z 29002MPS 9999 SCT023CB 02/01 Q0997 R26/290060 NOSIG RMK QFE746/0995
MVFR 3°C / 2°C 300º variable 270º to 330º 4kt >10km - Broken Clouds 2000ft 997 No Significant change. Runway 26: Wet or puddles, 51-100% contamination with <1mm, friction coefficient 0.60. ULAA 181400Z 30002MPS 270V330 9999 BKN020CB 03/02 Q0997 R26/290060 NOSIG RMK QFE746/0995
MVFR 3°C / 2°C 280º 4kt >10km - Broken Clouds 2000ft 996 No Significant change. Runway 26: Wet or puddles, 51-100% contamination with <1mm, friction coefficient 0.60. ULAA 181330Z 28002MPS 9999 BKN020CB 03/02 Q0996 R26/290060 NOSIG RMK QFE746/0995
IFR 4°C / 3°C 270º variable 240º to 300º 4kt >10km - Broken Clouds 800ft 996 No Significant change. Runway 26: Wet or puddles, 51-100% contamination with <1mm, friction coefficient 0.60. ULAA 181300Z 27002MPS 240V300 9999 BKN008CB 04/03 Q0996 R26/290060 NOSIG RMK QFE746/0994
IFR 4°C / 3°C 280º 6kt 9000m Light Showers Rain 3.00mm precipitation Vertical Visibility of 0ft. 996 No Significant change. Runway 26: Wet or puddles, 51-100% contamination with <1mm, friction coefficient 0.60. ULAA 181230Z 28003MPS 9000 -SHRA OVC007CB 04/03 Q0996 R26/290060 NOSIG RMK QFE745/0994
MVFR 4°C / 2°C 260º variable 230º to 300º 4kt 9000m Light Showers Rain 3.00mm precipitation Vertical Visibility of 0ft. 995 No Significant change. Runway 26: Wet or puddles, 51-100% contamination with <1mm, friction coefficient 0.60. ULAA 181200Z 26002MPS 230V300 9000 -SHRA OVC012CB 04/02 Q0995 R26/290060 NOSIG RMK QFE745/0994
MVFR 4°C / 2°C 250º variable 210º to 280º 6kt >10km - Broken Clouds 1700ft 995 No Significant change. Runway 26: Wet or puddles, 51-100% contamination with <1mm, friction coefficient 0.60. ULAA 181130Z 25003MPS 210V280 9999 BKN017CB 04/02 Q0995 R26/290060 NOSIG RMK QFE745/0993
MVFR 3°C / 2°C 280º variable 240º to 320º 4kt >10km Light Showers Rain 3.00mm precipitation Vertical Visibility of 0ft. 995 No Significant change. Runway 26: Wet or puddles, 51-100% contamination with <1mm, friction coefficient 0.60. ULAA 181100Z 28002MPS 240V320 9999 -SHRA BKN012CB 03/02 Q0995 R26/290060 NOSIG RMK QFE745/0993
MVFR 5°C / 3°C 280º variable 230º to 320º 6kt >10km Light Showers Rain 3.00mm precipitation Vertical Visibility of 0ft. 995 No Significant change. Runway 26: Wet or puddles, 51-100% contamination with <1mm, friction coefficient 0.60. ULAA 181030Z 28003MPS 230V320 9999 -SHRA BKN011CB 05/03 Q0995 R26/290060 NOSIG RMK QFE745/0993
IFR 4°C / 2°C 280º 6kt >10km - Broken Clouds 900ft 994 No Significant change. Runway 26: Wet or puddles, 51-100% contamination with <1mm, friction coefficient 0.60. ULAA 181000Z 28003MPS 9999 BKN009CB 04/02 Q0994 R26/290060 NOSIG RMK QFE744/0993
MVFR 3°C / 2°C 240º variable 210º to 270º 6kt >10km Light Showers Rain 3.00mm precipitation Vertical Visibility of 0ft.
Broken Clouds 1600ft
994 No Significant change. Runway 26: Wet or puddles, 51-100% contamination with <1mm, friction coefficient 0.60. ULAA 180930Z 24003MPS 210V270 9999 -SHRA SCT008 BKN016CB 03/02 Q0994 R26/290060 NOSIG RMK QFE744/0992
IFR 3°C / 2°C 260º variable 230º to 300º 6kt >10km Light Showers Rain 3.00mm precipitation Vertical Visibility of 0ft. 994 No Significant change. Runway 26: Wet or puddles, 51-100% contamination with <1mm, friction coefficient 0.60. ULAA 180900Z 26003MPS 230V300 9999 -SHRA BKN006CB 03/02 Q0994 R26/290060 NOSIG RMK QBB180 QFE744/0992
IFR 3°C / 2°C 250º variable 180º to 280º 6kt >10km Light Showers Rain 3.00mm precipitation Vertical Visibility of 0ft. 994 No Significant change. Runway 26: Wet or puddles, 51-100% contamination with <1mm, friction coefficient 0.60. ULAA 180830Z 25003MPS 180V280 9999 -SHRA OVC006CB 03/02 Q0994 R26/290060 NOSIG RMK QBB180 QFE744/0992
IFR 3°C / 2°C 250º variable 220º to 290º 6kt 7000m - Overcast 600ft 993 No Significant change. Runway 26: Wet or puddles, 51-100% contamination with <1mm, friction coefficient 0.60. ULAA 180800Z 25003MPS 220V290 7000 OVC006CB 03/02 Q0993 R26/290060 NOSIG RMK QBB180 QFE743/0991
IFR 3°C / 2°C 250º variable 210º to 280º 6kt 9000m Light Showers Rain 3.00mm precipitation Vertical Visibility of 0ft. 993 No Significant change. Runway 26: Wet or puddles, 51-100% contamination with <1mm, friction coefficient 0.60. ULAA 180730Z 25003MPS 210V280 9000 -SHRA OVC006CB 03/02 Q0993 R26/290060 NOSIG RMK QBB180 QFE743/0991
IFR 2°C / 2°C 250º variable 210º to 280º 6kt 9000m Light Showers Rain 3.00mm precipitation Vertical Visibility of 0ft. 993 No Significant change. Runway 26: Wet or puddles, 51-100% contamination with <1mm, friction coefficient 0.60. ULAA 180700Z 25003MPS 210V280 9000 -SHRA OVC006CB 02/02 Q0993 R26/290060 NOSIG RMK QBB200 QFE743/0991
IFR 2°C / 2°C 240º variable 200º to 270º 6kt 9000m Light Showers Rain 3.00mm precipitation Vertical Visibility of 0ft. 992 No Significant change. Runway 26: Wet or puddles, 51-100% contamination with <1mm, friction coefficient 0.60. ULAA 180630Z 24003MPS 200V270 9000 -SHRA OVC005CB 02/02 Q0992 R26/290060 NOSIG RMK QBB160 QFE743/0991
IFR 2°C / 2°C 250º variable 200º to 280º 6kt 7000m Light Showers Rain 3.00mm precipitation Vertical Visibility of 0ft. 992 No Significant change. Runway 26: Wet or puddles, 51-100% contamination with <1mm, friction coefficient 0.60. ULAA 180600Z 25003MPS 200V280 7000 -SHRA OVC006CB 02/02 Q0992 R26/290060 NOSIG RMK QBB180 QFE743/0990
IFR 2°C / 1°C 240º variable 190º to 270º 6kt 9000m Light Showers Rain 3.00mm precipitation Vertical Visibility of 0ft. 992 No Significant change. Runway 26: Wet or puddles, 51-100% contamination with <1mm, friction coefficient 0.60. ULAA 180530Z 24003MPS 190V270 9000 -SHRA OVC007CB 02/01 Q0992 R26/290060 NOSIG RMK QFE742/0990
IFR 2°C / 1°C 240º variable 200º to 280º 8kt 9000m Light Showers Rain 3.00mm precipitation Vertical Visibility of 0ft.
Overcast 1100ft
991 No Significant change. Runway 26: Wet or puddles, 51-100% contamination with <1mm, friction coefficient 0.60. ULAA 180500Z 24004MPS 200V280 9000 -SHRA BKN008 OVC011CB 02/01 Q0991 R26/290060 NOSIG RMK QFE742/0990
IFR 2°C / 1°C 240º variable 210º to 270º 8kt >10km Light Showers Rain 3.00mm precipitation Vertical Visibility of 0ft. 991 No Significant change. Runway 26: Wet or puddles, 51-100% contamination with <1mm, friction coefficient 0.60. ULAA 180430Z 24004MPS 210V270 9999 -SHRA OVC008CB 02/01 Q0991 R26/290060 NOSIG RMK QFE742/0989
MVFR 2°C / 1°C 240º variable 200º to 280º 8kt >10km - Overcast 1100ft 991 No Significant change. Runway 26: Wet or puddles, 51-100% contamination with <1mm, friction coefficient 0.60. ULAA 180400Z 24004MPS 200V280 9999 OVC011CB 02/01 Q0991 R26/290060 NOSIG RMK QFE742/0989
MVFR 2°C / 1°C 230º variable 190º to 270º 6kt >10km - Overcast 1200ft 991 No Significant change. Runway 26: Wet or puddles, 51-100% contamination with <1mm, friction coefficient 0.60. ULAA 180330Z 23003MPS 190V270 9999 OVC012CB 02/01 Q0991 R26/290060 NOSIG RMK QFE742/0989

MVFR

2°C / 2°C

[Più]
Vento variable 2kt
Visibilità >10km
Tempo -
Nuvole Broken Clouds 1600ft
Pressione 997
Cambiamento No Significant change. Runway 26: Wet or puddles, 51-100% contamination with <1mm, friction coefficient 0.60.
Grezzo ULAA 181500Z VRB01MPS 9999 BKN016CB 02/02 Q0997 R26/290060 NOSIG RMK QFE746/0995

VFR

2°C / 1°C

[Più]
Vento 290º 4kt
Visibilità >10km
Tempo -
Nuvole Scattered Clouds 2300ft
Pressione 997
Cambiamento No Significant change. Runway 26: Wet or puddles, 51-100% contamination with <1mm, friction coefficient 0.60.
Grezzo ULAA 181430Z 29002MPS 9999 SCT023CB 02/01 Q0997 R26/290060 NOSIG RMK QFE746/0995

MVFR

3°C / 2°C

[Più]
Vento 300º variable 270º to 330º 4kt
Visibilità >10km
Tempo -
Nuvole Broken Clouds 2000ft
Pressione 997
Cambiamento No Significant change. Runway 26: Wet or puddles, 51-100% contamination with <1mm, friction coefficient 0.60.
Grezzo ULAA 181400Z 30002MPS 270V330 9999 BKN020CB 03/02 Q0997 R26/290060 NOSIG RMK QFE746/0995

MVFR

3°C / 2°C

[Più]
Vento 280º 4kt
Visibilità >10km
Tempo -
Nuvole Broken Clouds 2000ft
Pressione 996
Cambiamento No Significant change. Runway 26: Wet or puddles, 51-100% contamination with <1mm, friction coefficient 0.60.
Grezzo ULAA 181330Z 28002MPS 9999 BKN020CB 03/02 Q0996 R26/290060 NOSIG RMK QFE746/0995

IFR

4°C / 3°C

[Più]
Vento 270º variable 240º to 300º 4kt
Visibilità >10km
Tempo -
Nuvole Broken Clouds 800ft
Pressione 996
Cambiamento No Significant change. Runway 26: Wet or puddles, 51-100% contamination with <1mm, friction coefficient 0.60.
Grezzo ULAA 181300Z 27002MPS 240V300 9999 BKN008CB 04/03 Q0996 R26/290060 NOSIG RMK QFE746/0994

IFR

4°C / 3°C

[Più]
Vento 280º 6kt
Visibilità 9000m
Tempo Light Showers Rain 3.00mm precipitation
Nuvole Vertical Visibility of 0ft.
Pressione 996
Cambiamento No Significant change. Runway 26: Wet or puddles, 51-100% contamination with <1mm, friction coefficient 0.60.
Grezzo ULAA 181230Z 28003MPS 9000 -SHRA OVC007CB 04/03 Q0996 R26/290060 NOSIG RMK QFE745/0994

MVFR

4°C / 2°C

[Più]
Vento 260º variable 230º to 300º 4kt
Visibilità 9000m
Tempo Light Showers Rain 3.00mm precipitation
Nuvole Vertical Visibility of 0ft.
Pressione 995
Cambiamento No Significant change. Runway 26: Wet or puddles, 51-100% contamination with <1mm, friction coefficient 0.60.
Grezzo ULAA 181200Z 26002MPS 230V300 9000 -SHRA OVC012CB 04/02 Q0995 R26/290060 NOSIG RMK QFE745/0994

MVFR

4°C / 2°C

[Più]
Vento 250º variable 210º to 280º 6kt
Visibilità >10km
Tempo -
Nuvole Broken Clouds 1700ft
Pressione 995
Cambiamento No Significant change. Runway 26: Wet or puddles, 51-100% contamination with <1mm, friction coefficient 0.60.
Grezzo ULAA 181130Z 25003MPS 210V280 9999 BKN017CB 04/02 Q0995 R26/290060 NOSIG RMK QFE745/0993

MVFR

3°C / 2°C

[Più]
Vento 280º variable 240º to 320º 4kt
Visibilità >10km
Tempo Light Showers Rain 3.00mm precipitation
Nuvole Vertical Visibility of 0ft.
Pressione 995
Cambiamento No Significant change. Runway 26: Wet or puddles, 51-100% contamination with <1mm, friction coefficient 0.60.
Grezzo ULAA 181100Z 28002MPS 240V320 9999 -SHRA BKN012CB 03/02 Q0995 R26/290060 NOSIG RMK QFE745/0993

MVFR

5°C / 3°C

[Più]
Vento 280º variable 230º to 320º 6kt
Visibilità >10km
Tempo Light Showers Rain 3.00mm precipitation
Nuvole Vertical Visibility of 0ft.
Pressione 995
Cambiamento No Significant change. Runway 26: Wet or puddles, 51-100% contamination with <1mm, friction coefficient 0.60.
Grezzo ULAA 181030Z 28003MPS 230V320 9999 -SHRA BKN011CB 05/03 Q0995 R26/290060 NOSIG RMK QFE745/0993

IFR

4°C / 2°C

[Più]
Vento 280º 6kt
Visibilità >10km
Tempo -
Nuvole Broken Clouds 900ft
Pressione 994
Cambiamento No Significant change. Runway 26: Wet or puddles, 51-100% contamination with <1mm, friction coefficient 0.60.
Grezzo ULAA 181000Z 28003MPS 9999 BKN009CB 04/02 Q0994 R26/290060 NOSIG RMK QFE744/0993

MVFR

3°C / 2°C

[Più]
Vento 240º variable 210º to 270º 6kt
Visibilità >10km
Tempo Light Showers Rain 3.00mm precipitation
Nuvole Vertical Visibility of 0ft.
Broken Clouds 1600ft
Pressione 994
Cambiamento No Significant change. Runway 26: Wet or puddles, 51-100% contamination with <1mm, friction coefficient 0.60.
Grezzo ULAA 180930Z 24003MPS 210V270 9999 -SHRA SCT008 BKN016CB 03/02 Q0994 R26/290060 NOSIG RMK QFE744/0992

IFR

3°C / 2°C

[Più]
Vento 260º variable 230º to 300º 6kt
Visibilità >10km
Tempo Light Showers Rain 3.00mm precipitation
Nuvole Vertical Visibility of 0ft.
Pressione 994
Cambiamento No Significant change. Runway 26: Wet or puddles, 51-100% contamination with <1mm, friction coefficient 0.60.
Grezzo ULAA 180900Z 26003MPS 230V300 9999 -SHRA BKN006CB 03/02 Q0994 R26/290060 NOSIG RMK QBB180 QFE744/0992

IFR

3°C / 2°C

[Più]
Vento 250º variable 180º to 280º 6kt
Visibilità >10km
Tempo Light Showers Rain 3.00mm precipitation
Nuvole Vertical Visibility of 0ft.
Pressione 994
Cambiamento No Significant change. Runway 26: Wet or puddles, 51-100% contamination with <1mm, friction coefficient 0.60.
Grezzo ULAA 180830Z 25003MPS 180V280 9999 -SHRA OVC006CB 03/02 Q0994 R26/290060 NOSIG RMK QBB180 QFE744/0992

IFR

3°C / 2°C

[Più]
Vento 250º variable 220º to 290º 6kt
Visibilità 7000m
Tempo -
Nuvole Overcast 600ft
Pressione 993
Cambiamento No Significant change. Runway 26: Wet or puddles, 51-100% contamination with <1mm, friction coefficient 0.60.
Grezzo ULAA 180800Z 25003MPS 220V290 7000 OVC006CB 03/02 Q0993 R26/290060 NOSIG RMK QBB180 QFE743/0991

IFR

3°C / 2°C

[Più]
Vento 250º variable 210º to 280º 6kt
Visibilità 9000m
Tempo Light Showers Rain 3.00mm precipitation
Nuvole Vertical Visibility of 0ft.
Pressione 993
Cambiamento No Significant change. Runway 26: Wet or puddles, 51-100% contamination with <1mm, friction coefficient 0.60.
Grezzo ULAA 180730Z 25003MPS 210V280 9000 -SHRA OVC006CB 03/02 Q0993 R26/290060 NOSIG RMK QBB180 QFE743/0991

IFR

2°C / 2°C

[Più]
Vento 250º variable 210º to 280º 6kt
Visibilità 9000m
Tempo Light Showers Rain 3.00mm precipitation
Nuvole Vertical Visibility of 0ft.
Pressione 993
Cambiamento No Significant change. Runway 26: Wet or puddles, 51-100% contamination with <1mm, friction coefficient 0.60.
Grezzo ULAA 180700Z 25003MPS 210V280 9000 -SHRA OVC006CB 02/02 Q0993 R26/290060 NOSIG RMK QBB200 QFE743/0991

IFR

2°C / 2°C

[Più]
Vento 240º variable 200º to 270º 6kt
Visibilità 9000m
Tempo Light Showers Rain 3.00mm precipitation
Nuvole Vertical Visibility of 0ft.
Pressione 992
Cambiamento No Significant change. Runway 26: Wet or puddles, 51-100% contamination with <1mm, friction coefficient 0.60.
Grezzo ULAA 180630Z 24003MPS 200V270 9000 -SHRA OVC005CB 02/02 Q0992 R26/290060 NOSIG RMK QBB160 QFE743/0991

IFR

2°C / 2°C

[Più]
Vento 250º variable 200º to 280º 6kt
Visibilità 7000m
Tempo Light Showers Rain 3.00mm precipitation
Nuvole Vertical Visibility of 0ft.
Pressione 992
Cambiamento No Significant change. Runway 26: Wet or puddles, 51-100% contamination with <1mm, friction coefficient 0.60.
Grezzo ULAA 180600Z 25003MPS 200V280 7000 -SHRA OVC006CB 02/02 Q0992 R26/290060 NOSIG RMK QBB180 QFE743/0990

IFR

2°C / 1°C

[Più]
Vento 240º variable 190º to 270º 6kt
Visibilità 9000m
Tempo Light Showers Rain 3.00mm precipitation
Nuvole Vertical Visibility of 0ft.
Pressione 992
Cambiamento No Significant change. Runway 26: Wet or puddles, 51-100% contamination with <1mm, friction coefficient 0.60.
Grezzo ULAA 180530Z 24003MPS 190V270 9000 -SHRA OVC007CB 02/01 Q0992 R26/290060 NOSIG RMK QFE742/0990

IFR

2°C / 1°C

[Più]
Vento 240º variable 200º to 280º 8kt
Visibilità 9000m
Tempo Light Showers Rain 3.00mm precipitation
Nuvole Vertical Visibility of 0ft.
Overcast 1100ft
Pressione 991
Cambiamento No Significant change. Runway 26: Wet or puddles, 51-100% contamination with <1mm, friction coefficient 0.60.
Grezzo ULAA 180500Z 24004MPS 200V280 9000 -SHRA BKN008 OVC011CB 02/01 Q0991 R26/290060 NOSIG RMK QFE742/0990

IFR

2°C / 1°C

[Più]
Vento 240º variable 210º to 270º 8kt
Visibilità >10km
Tempo Light Showers Rain 3.00mm precipitation
Nuvole Vertical Visibility of 0ft.
Pressione 991
Cambiamento No Significant change. Runway 26: Wet or puddles, 51-100% contamination with <1mm, friction coefficient 0.60.
Grezzo ULAA 180430Z 24004MPS 210V270 9999 -SHRA OVC008CB 02/01 Q0991 R26/290060 NOSIG RMK QFE742/0989

MVFR

2°C / 1°C

[Più]
Vento 240º variable 200º to 280º 8kt
Visibilità >10km
Tempo -
Nuvole Overcast 1100ft
Pressione 991
Cambiamento No Significant change. Runway 26: Wet or puddles, 51-100% contamination with <1mm, friction coefficient 0.60.
Grezzo ULAA 180400Z 24004MPS 200V280 9999 OVC011CB 02/01 Q0991 R26/290060 NOSIG RMK QFE742/0989

MVFR

2°C / 1°C

[Più]
Vento 230º variable 190º to 270º 6kt
Visibilità >10km
Tempo -
Nuvole Overcast 1200ft
Pressione 991
Cambiamento No Significant change. Runway 26: Wet or puddles, 51-100% contamination with <1mm, friction coefficient 0.60.
Grezzo ULAA 180330Z 23003MPS 190V270 9999 OVC012CB 02/01 Q0991 R26/290060 NOSIG RMK QFE742/0989

TAF per 64.6°N 40.72°E (ULAA)

From till


From till Wind 310º 6kt. Visibility 10km or more. Broken Clouds 1700ft.
Temporarly from till Wind 340º 6kt. Gust 23kt. Visibility 997.791m. Showers Snow Showers Rain Mist . Broken Clouds 300ft. Broken Clouds 1100ft.
Temporarly from till Wind 350º 8kt. Gust 23kt. Visibility 6000m. Light Showers Snow Light Showers Rain . Few Clouds 500ft. Broken Clouds 1600ft.

Grezzo: TAF ULAA 181400Z 1815/1915 31003MPS 9999 BKN017CB TEMPO 1815/1819 34003G12MPS 1000 SHSNRA BR BKN003 BKN011CB TEMPO 1819/1824 35004G12MPS 6000 -SHSNRA FEW005 BKN016CB

Tempo in atto per 64.6°N 40.72°E: immagine satellitare e pioggia

Il segnaposto è situato a 64.6°N 40.72°E. [Più]

L'immagine satellitare in tempo reale combina la luce visibile durante il giorno con la radiazione infrarossa durante la notte. Di notte l'immagine non è scura poiché i raggi infrarossi possono rilevare differenze di temperatura. Purtroppo, le nuvole basse e la nebbia sono difficili da distinguere dalla temperatura del suolo e possono pertanto essere quasi invisibili durante la notte. Le immagini satellitari Meteosat per l'Europa vengono aggiornate in tempo reale ogni 5 minuti. Le immagini GOES-16 / GOES-17 (Nord e Sud America) e Himawari (Asia) vengono aggiornate ogni 10 minuti.

Copyright 2021 EUMETSAT / meteoblue. / Copyright 2021 meteoblue

Radar e nowcasting per 64.6°N 40.72°E

Pioggerella
Lieve
Moderato
Forte
Molto forte
Grandine

Il segnaposto è situato a 64.6°N 40.72°E. Questa animazione mostra il radar delle precipitazioni per l'ultima ora, nonché una previsione 1h. Drizzle or light snow fall might be invisible for the radar. Precipitation intensity is colour coded, ranging from light blue to orange.